sensor_id;sensor_type;location;lat;lon;timestamp;P1;P2;P0
76784;PMS7003;66893;44.316;0.092;2023-11-21T00:01:40;0.50;0.00;0.00
76784;PMS7003;66893;44.316;0.092;2023-11-21T00:04:05;0.00;0.00;0.00
76784;PMS7003;66893;44.316;0.092;2023-11-21T00:06:32;4.50;1.00;0.00
76784;PMS7003;66893;44.316;0.092;2023-11-21T00:08:58;0.75;0.50;0.00
76784;PMS7003;66893;44.316;0.092;2023-11-21T00:11:23;1.75;1.00;0.50
76784;PMS7003;66893;44.316;0.092;2023-11-21T00:13:50;0.00;0.00;0.00
76784;PMS7003;66893;44.316;0.092;2023-11-21T00:16:15;1.50;0.25;0.00
76784;PMS7003;66893;44.316;0.092;2023-11-21T00:18:41;0.25;0.00;0.00
76784;PMS7003;66893;44.316;0.092;2023-11-21T00:21:07;2.00;0.00;0.00
76784;PMS7003;66893;44.316;0.092;2023-11-21T00:23:33;0.75;0.75;0.00
76784;PMS7003;66893;44.316;0.092;2023-11-21T00:25:59;1.00;0.00;0.00
76784;PMS7003;66893;44.316;0.092;2023-11-21T00:28:25;0.00;0.00;0.00
76784;PMS7003;66893;44.316;0.092;2023-11-21T00:30:51;0.75;0.00;0.00
76784;PMS7003;66893;44.316;0.092;2023-11-21T00:33:16;0.00;0.00;0.00
76784;PMS7003;66893;44.316;0.092;2023-11-21T00:35:42;0.75;0.75;0.00
76784;PMS7003;66893;44.316;0.092;2023-11-21T00:38:07;0.50;0.50;0.00
76784;PMS7003;66893;44.316;0.092;2023-11-21T00:40:33;0.25;0.00;0.00
76784;PMS7003;66893;44.316;0.092;2023-11-21T00:42:59;1.00;0.25;0.00
76784;PMS7003;66893;44.316;0.092;2023-11-21T00:45:24;0.00;0.00;0.00
76784;PMS7003;66893;44.316;0.092;2023-11-21T00:47:50;1.75;0.00;0.00
76784;PMS7003;66893;44.316;0.092;2023-11-21T00:50:16;0.00;0.00;0.00
76784;PMS7003;66893;44.316;0.092;2023-11-21T00:52:41;0.25;0.00;0.00
76784;PMS7003;66893;44.316;0.092;2023-11-21T00:55:07;2.75;0.00;0.00
76784;PMS7003;66893;44.316;0.092;2023-11-21T00:57:33;0.50;0.50;0.50
76784;PMS7003;66893;44.316;0.092;2023-11-21T00:59:59;0.50;0.00;0.00
76784;PMS7003;66893;44.316;0.092;2023-11-21T01:02:25;0.75;0.00;0.00
76784;PMS7003;66893;44.316;0.092;2023-11-21T01:04:50;1.75;0.00;0.00
76784;PMS7003;66893;44.316;0.092;2023-11-21T01:07:16;2.50;0.25;0.00
76784;PMS7003;66893;44.316;0.092;2023-11-21T01:09:42;0.75;0.00;0.00
76784;PMS7003;66893;44.316;0.092;2023-11-21T01:12:09;1.50;0.25;0.00
76784;PMS7003;66893;44.316;0.092;2023-11-21T01:14:34;0.00;0.00;0.00
76784;PMS7003;66893;44.316;0.092;2023-11-21T01:17:01;0.75;0.75;0.00
76784;PMS7003;66893;44.316;0.092;2023-11-21T01:19:27;0.50;0.25;0.00
76784;PMS7003;66893;44.316;0.092;2023-11-21T01:21:53;0.00;0.00;0.00
76784;PMS7003;66893;44.316;0.092;2023-11-21T01:24:19;0.00;0.00;0.00
76784;PMS7003;66893;44.316;0.092;2023-11-21T01:26:44;0.75;0.75;0.00
76784;PMS7003;66893;44.316;0.092;2023-11-21T01:29:11;1.00;0.00;0.00
76784;PMS7003;66893;44.316;0.092;2023-11-21T01:31:37;1.25;0.00;0.00
76784;PMS7003;66893;44.316;0.092;2023-11-21T01:34:02;0.75;0.00;0.00
76784;PMS7003;66893;44.316;0.092;2023-11-21T01:36:31;1.75;0.00;0.00
76784;PMS7003;66893;44.316;0.092;2023-11-21T01:38:57;1.25;0.75;0.00
76784;PMS7003;66893;44.316;0.092;2023-11-21T01:41:24;0.00;0.00;0.00
76784;PMS7003;66893;44.316;0.092;2023-11-21T01:43:52;0.00;0.00;0.00
76784;PMS7003;66893;44.316;0.092;2023-11-21T01:46:18;0.00;0.00;0.00
76784;PMS7003;66893;44.316;0.092;2023-11-21T01:48:45;1.00;0.00;0.00
76784;PMS7003;66893;44.316;0.092;2023-11-21T01:51:11;0.00;0.00;0.00
76784;PMS7003;66893;44.316;0.092;2023-11-21T01:53:37;3.25;0.00;0.00
76784;PMS7003;66893;44.316;0.092;2023-11-21T01:56:02;0.00;0.00;0.00
76784;PMS7003;66893;44.316;0.092;2023-11-21T01:58:28;2.50;0.00;0.00
76784;PMS7003;66893;44.316;0.092;2023-11-21T02:00:57;0.75;0.75;0.00
76784;PMS7003;66893;44.316;0.092;2023-11-21T02:03:23;0.00;0.00;0.00
76784;PMS7003;66893;44.316;0.092;2023-11-21T02:05:48;0.00;0.00;0.00
76784;PMS7003;66893;44.316;0.092;2023-11-21T02:08:14;1.75;0.00;0.00
76784;PMS7003;66893;44.316;0.092;2023-11-21T02:10:39;0.00;0.00;0.00
76784;PMS7003;66893;44.316;0.092;2023-11-21T02:13:05;0.25;0.00;0.00
76784;PMS7003;66893;44.316;0.092;2023-11-21T02:15:31;0.00;0.00;0.00
76784;PMS7003;66893;44.316;0.092;2023-11-21T02:17:56;0.75;0.00;0.00
76784;PMS7003;66893;44.316;0.092;2023-11-21T02:20:23;0.00;0.00;0.00
76784;PMS7003;66893;44.316;0.092;2023-11-21T02:25:23;1.00;0.00;0.00
76784;PMS7003;66893;44.316;0.092;2023-11-21T02:27:57;0.00;0.00;0.00
76784;PMS7003;66893;44.316;0.092;2023-11-21T02:30:24;1.00;1.00;1.00
76784;PMS7003;66893;44.316;0.092;2023-11-21T02:32:50;0.00;0.00;0.00
76784;PMS7003;66893;44.316;0.092;2023-11-21T02:35:19;0.00;0.00;0.00
76784;PMS7003;66893;44.316;0.092;2023-11-21T02:37:50;2.00;0.50;0.00
76784;PMS7003;66893;44.316;0.092;2023-11-21T02:40:16;0.00;0.00;0.00
76784;PMS7003;66893;44.316;0.092;2023-11-21T02:42:49;0.00;0.00;0.00
76784;PMS7003;66893;44.316;0.092;2023-11-21T02:45:18;0.00;0.00;0.00
76784;PMS7003;66893;44.316;0.092;2023-11-21T02:47:49;0.75;0.00;0.00
76784;PMS7003;66893;44.316;0.092;2023-11-21T02:50:14;3.00;0.00;0.00
76784;PMS7003;66893;44.316;0.092;2023-11-21T02:52:40;0.00;0.00;0.00
76784;PMS7003;66893;44.316;0.092;2023-11-21T02:55:06;0.00;0.00;0.00
76784;PMS7003;66893;44.316;0.092;2023-11-21T02:57:34;0.75;0.00;0.00
76784;PMS7003;66893;44.316;0.092;2023-11-21T03:00:00;0.00;0.00;0.00
76784;PMS7003;66893;44.316;0.092;2023-11-21T03:02:25;0.50;0.00;0.00
76784;PMS7003;66893;44.316;0.092;2023-11-21T03:04:51;0.25;0.00;0.00
76784;PMS7003;66893;44.316;0.092;2023-11-21T03:07:16;0.00;0.00;0.00
76784;PMS7003;66893;44.316;0.092;2023-11-21T03:09:44;0.00;0.00;0.00
76784;PMS7003;66893;44.316;0.092;2023-11-21T03:12:10;0.00;0.00;0.00
76784;PMS7003;66893;44.316;0.092;2023-11-21T03:14:37;0.00;0.00;0.00
76784;PMS7003;66893;44.316;0.092;2023-11-21T03:17:03;0.00;0.00;0.00
76784;PMS7003;66893;44.316;0.092;2023-11-21T03:19:29;0.00;0.00;0.00
76784;PMS7003;66893;44.316;0.092;2023-11-21T03:21:55;0.00;0.00;0.00
76784;PMS7003;66893;44.316;0.092;2023-11-21T03:24:20;1.50;0.00;0.00
76784;PMS7003;66893;44.316;0.092;2023-11-21T03:26:47;0.75;0.00;0.00
76784;PMS7003;66893;44.316;0.092;2023-11-21T03:29:13;0.50;0.00;0.00
76784;PMS7003;66893;44.316;0.092;2023-11-21T03:31:39;0.00;0.00;0.00
76784;PMS7003;66893;44.316;0.092;2023-11-21T03:34:05;0.00;0.00;0.00
76784;PMS7003;66893;44.316;0.092;2023-11-21T03:36:31;1.00;0.00;0.00
76784;PMS7003;66893;44.316;0.092;2023-11-21T03:38:56;0.25;0.25;0.00
76784;PMS7003;66893;44.316;0.092;2023-11-21T03:41:22;0.50;0.00;0.00
76784;PMS7003;66893;44.316;0.092;2023-11-21T03:43:47;2.00;0.00;0.00
76784;PMS7003;66893;44.316;0.092;2023-11-21T03:46:13;0.00;0.00;0.00
76784;PMS7003;66893;44.316;0.092;2023-11-21T03:48:38;0.00;0.00;0.00
76784;PMS7003;66893;44.316;0.092;2023-11-21T03:51:04;1.00;0.00;0.00
76784;PMS7003;66893;44.316;0.092;2023-11-21T03:53:30;0.50;0.50;0.00
76784;PMS7003;66893;44.316;0.092;2023-11-21T03:55:55;0.25;0.00;0.00
76784;PMS7003;66893;44.316;0.092;2023-11-21T03:58:20;0.00;0.00;0.00
76784;PMS7003;66893;44.316;0.092;2023-11-21T04:00:46;1.25;0.00;0.00
76784;PMS7003;66893;44.316;0.092;2023-11-21T04:03:14;0.50;0.00;0.00
76784;PMS7003;66893;44.316;0.092;2023-11-21T04:05:40;1.00;0.00;0.00
76784;PMS7003;66893;44.316;0.092;2023-11-21T04:08:06;0.00;0.00;0.00
76784;PMS7003;66893;44.316;0.092;2023-11-21T04:10:31;1.00;0.00;0.00
76784;PMS7003;66893;44.316;0.092;2023-11-21T04:12:57;0.00;0.00;0.00
76784;PMS7003;66893;44.316;0.092;2023-11-21T04:15:23;0.25;0.00;0.00
76784;PMS7003;66893;44.316;0.092;2023-11-21T04:17:48;0.00;0.00;0.00
76784;PMS7003;66893;44.316;0.092;2023-11-21T04:20:14;0.25;0.00;0.00
76784;PMS7003;66893;44.316;0.092;2023-11-21T04:22:40;1.25;0.00;0.00
76784;PMS7003;66893;44.316;0.092;2023-11-21T04:25:09;0.00;0.00;0.00
76784;PMS7003;66893;44.316;0.092;2023-11-21T04:27:42;0.50;0.25;0.00
76784;PMS7003;66893;44.316;0.092;2023-11-21T04:30:09;0.50;0.00;0.00
76784;PMS7003;66893;44.316;0.092;2023-11-21T04:32:38;0.00;0.00;0.00
76784;PMS7003;66893;44.316;0.092;2023-11-21T04:35:04;0.25;0.00;0.00
76784;PMS7003;66893;44.316;0.092;2023-11-21T04:37:30;2.00;0.00;0.00
76784;PMS7003;66893;44.316;0.092;2023-11-21T04:39:55;0.25;0.25;0.00
76784;PMS7003;66893;44.316;0.092;2023-11-21T04:42:21;0.50;0.00;0.00
76784;PMS7003;66893;44.316;0.092;2023-11-21T04:44:46;1.00;0.00;0.00
76784;PMS7003;66893;44.316;0.092;2023-11-21T04:47:12;1.50;0.50;0.00
76784;PMS7003;66893;44.316;0.092;2023-11-21T04:49:39;0.00;0.00;0.00
76784;PMS7003;66893;44.316;0.092;2023-11-21T04:52:07;0.00;0.00;0.00
76784;PMS7003;66893;44.316;0.092;2023-11-21T04:54:34;1.50;0.00;0.00
76784;PMS7003;66893;44.316;0.092;2023-11-21T04:57:00;7.25;0.00;0.00
76784;PMS7003;66893;44.316;0.092;2023-11-21T04:59:25;0.50;0.50;0.00
76784;PMS7003;66893;44.316;0.092;2023-11-21T05:01:52;1.00;0.50;0.50
76784;PMS7003;66893;44.316;0.092;2023-11-21T05:04:18;0.50;0.00;0.00
76784;PMS7003;66893;44.316;0.092;2023-11-21T05:06:44;1.00;1.00;0.75
76784;PMS7003;66893;44.316;0.092;2023-11-21T05:09:09;1.75;0.75;0.00
76784;PMS7003;66893;44.316;0.092;2023-11-21T05:11:37;0.00;0.00;0.00
76784;PMS7003;66893;44.316;0.092;2023-11-21T05:14:03;1.00;0.00;0.00
76784;PMS7003;66893;44.316;0.092;2023-11-21T05:16:30;2.00;0.00;0.00
76784;PMS7003;66893;44.316;0.092;2023-11-21T05:18:56;0.00;0.00;0.00
76784;PMS7003;66893;44.316;0.092;2023-11-21T05:21:26;1.75;0.25;0.00
76784;PMS7003;66893;44.316;0.092;2023-11-21T05:23:52;0.00;0.00;0.00
76784;PMS7003;66893;44.316;0.092;2023-11-21T05:26:17;0.25;0.00;0.00
76784;PMS7003;66893;44.316;0.092;2023-11-21T05:28:43;0.00;0.00;0.00
76784;PMS7003;66893;44.316;0.092;2023-11-21T05:31:08;0.00;0.00;0.00
76784;PMS7003;66893;44.316;0.092;2023-11-21T05:33:33;0.25;0.25;0.00
76784;PMS7003;66893;44.316;0.092;2023-11-21T05:35:59;3.75;0.75;0.00
76784;PMS7003;66893;44.316;0.092;2023-11-21T05:38:24;0.00;0.00;0.00
76784;PMS7003;66893;44.316;0.092;2023-11-21T05:40:50;2.00;0.50;0.25
76784;PMS7003;66893;44.316;0.092;2023-11-21T05:43:16;1.50;0.00;0.00
76784;PMS7003;66893;44.316;0.092;2023-11-21T05:45:41;2.00;0.00;0.00
76784;PMS7003;66893;44.316;0.092;2023-11-21T05:48:07;1.00;0.00;0.00
76784;PMS7003;66893;44.316;0.092;2023-11-21T05:50:32;0.50;0.50;0.00
76784;PMS7003;66893;44.316;0.092;2023-11-21T05:52:58;0.00;0.00;0.00
76784;PMS7003;66893;44.316;0.092;2023-11-21T05:55:25;0.00;0.00;0.00
76784;PMS7003;66893;44.316;0.092;2023-11-21T05:57:51;2.75;1.00;0.00
76784;PMS7003;66893;44.316;0.092;2023-11-21T06:00:16;0.00;0.00;0.00
76784;PMS7003;66893;44.316;0.092;2023-11-21T06:02:54;0.25;0.25;0.00
76784;PMS7003;66893;44.316;0.092;2023-11-21T06:05:21;0.00;0.00;0.00
76784;PMS7003;66893;44.316;0.092;2023-11-21T06:07:54;2.50;0.75;0.75
76784;PMS7003;66893;44.316;0.092;2023-11-21T06:10:23;1.00;0.50;0.00
76784;PMS7003;66893;44.316;0.092;2023-11-21T06:12:50;0.75;0.00;0.00
76784;PMS7003;66893;44.316;0.092;2023-11-21T06:15:15;0.75;0.75;0.00
76784;PMS7003;66893;44.316;0.092;2023-11-21T06:17:44;2.50;0.00;0.00
76784;PMS7003;66893;44.316;0.092;2023-11-21T06:20:10;0.25;0.25;0.00
76784;PMS7003;66893;44.316;0.092;2023-11-21T06:22:39;0.50;0.25;0.00
76784;PMS7003;66893;44.316;0.092;2023-11-21T06:25:06;0.75;0.75;0.50
76784;PMS7003;66893;44.316;0.092;2023-11-21T06:27:33;1.00;0.00;0.00
76784;PMS7003;66893;44.316;0.092;2023-11-21T06:30:01;2.00;0.25;0.00
76784;PMS7003;66893;44.316;0.092;2023-11-21T06:32:27;0.00;0.00;0.00
76784;PMS7003;66893;44.316;0.092;2023-11-21T06:34:54;0.75;0.75;0.00
76784;PMS7003;66893;44.316;0.092;2023-11-21T06:37:20;0.50;0.50;0.25
76784;PMS7003;66893;44.316;0.092;2023-11-21T06:39:48;0.00;0.00;0.00
76784;PMS7003;66893;44.316;0.092;2023-11-21T06:42:14;0.50;0.50;0.25
76784;PMS7003;66893;44.316;0.092;2023-11-21T06:44:40;2.75;1.00;1.00
76784;PMS7003;66893;44.316;0.092;2023-11-21T06:47:06;2.00;0.75;0.00
76784;PMS7003;66893;44.316;0.092;2023-11-21T06:49:32;0.50;0.50;0.50
76784;PMS7003;66893;44.316;0.092;2023-11-21T06:51:57;1.00;0.75;0.75
76784;PMS7003;66893;44.316;0.092;2023-11-21T06:54:23;2.25;0.50;0.00
76784;PMS7003;66893;44.316;0.092;2023-11-21T06:56:49;1.00;1.00;1.00
76784;PMS7003;66893;44.316;0.092;2023-11-21T06:59:15;1.00;1.00;1.00
76784;PMS7003;66893;44.316;0.092;2023-11-21T07:01:40;1.00;1.00;0.00
76784;PMS7003;66893;44.316;0.092;2023-11-21T07:04:06;1.00;1.00;0.50
76784;PMS7003;66893;44.316;0.092;2023-11-21T07:06:32;2.75;1.25;0.75
76784;PMS7003;66893;44.316;0.092;2023-11-21T07:08:58;1.00;1.00;1.00
76784;PMS7003;66893;44.316;0.092;2023-11-21T07:11:23;0.50;0.00;0.00
76784;PMS7003;66893;44.316;0.092;2023-11-21T07:13:50;0.50;0.50;0.50
76784;PMS7003;66893;44.316;0.092;2023-11-21T07:16:15;1.50;1.00;1.00
76784;PMS7003;66893;44.316;0.092;2023-11-21T07:18:41;2.00;2.00;1.00
76784;PMS7003;66893;44.316;0.092;2023-11-21T07:21:07;0.75;0.75;0.75
76784;PMS7003;66893;44.316;0.092;2023-11-21T07:23:33;2.00;2.00;1.00
76784;PMS7003;66893;44.316;0.092;2023-11-21T07:25:59;0.75;0.75;0.75
76784;PMS7003;66893;44.316;0.092;2023-11-21T07:28:24;1.75;1.75;0.75
76784;PMS7003;66893;44.316;0.092;2023-11-21T07:30:50;2.00;2.00;0.75
76784;PMS7003;66893;44.316;0.092;2023-11-21T07:33:16;2.50;2.50;1.75
76784;PMS7003;66893;44.316;0.092;2023-11-21T07:35:42;1.00;1.00;1.00
76784;PMS7003;66893;44.316;0.092;2023-11-21T07:38:08;2.00;1.50;1.00
76784;PMS7003;66893;44.316;0.092;2023-11-21T07:40:33;1.50;1.50;1.00
76784;PMS7003;66893;44.316;0.092;2023-11-21T07:42:59;0.50;0.50;0.00
76784;PMS7003;66893;44.316;0.092;2023-11-21T07:45:24;0.75;0.75;0.75
76784;PMS7003;66893;44.316;0.092;2023-11-21T07:47:52;2.75;0.75;0.75
76784;PMS7003;66893;44.316;0.092;2023-11-21T07:50:19;2.00;2.00;1.75
76784;PMS7003;66893;44.316;0.092;2023-11-21T07:52:45;2.00;1.50;0.75
76784;PMS7003;66893;44.316;0.092;2023-11-21T07:55:11;2.50;2.50;1.75
76784;PMS7003;66893;44.316;0.092;2023-11-21T07:57:36;4.25;3.00;1.75
76784;PMS7003;66893;44.316;0.092;2023-11-21T08:00:03;2.00;2.00;1.50
76784;PMS7003;66893;44.316;0.092;2023-11-21T08:02:31;2.75;1.75;1.75
76784;PMS7003;66893;44.316;0.092;2023-11-21T08:04:57;2.00;2.00;1.75
76784;PMS7003;66893;44.316;0.092;2023-11-21T08:07:22;3.25;0.75;0.75
76784;PMS7003;66893;44.316;0.092;2023-11-21T08:09:47;1.25;0.50;0.00
76784;PMS7003;66893;44.316;0.092;2023-11-21T08:12:15;1.25;1.25;0.75
76784;PMS7003;66893;44.316;0.092;2023-11-21T08:14:40;0.25;0.25;0.25
76784;PMS7003;66893;44.316;0.092;2023-11-21T08:17:06;1.50;1.00;1.00
76784;PMS7003;66893;44.316;0.092;2023-11-21T08:19:31;2.25;2.00;1.25
76784;PMS7003;66893;44.316;0.092;2023-11-21T08:21:58;3.25;1.50;1.25
76784;PMS7003;66893;44.316;0.092;2023-11-21T08:24:24;0.00;0.00;0.00
76784;PMS7003;66893;44.316;0.092;2023-11-21T08:26:49;1.25;1.25;1.25
76784;PMS7003;66893;44.316;0.092;2023-11-21T08:29:17;2.00;1.00;0.75
76784;PMS7003;66893;44.316;0.092;2023-11-21T08:31:43;3.00;1.00;0.75
76784;PMS7003;66893;44.316;0.092;2023-11-21T08:34:11;0.75;0.75;0.75
76784;PMS7003;66893;44.316;0.092;2023-11-21T08:36:46;2.75;2.75;1.00
76784;PMS7003;66893;44.316;0.092;2023-11-21T08:39:11;2.50;1.75;1.00
76784;PMS7003;66893;44.316;0.092;2023-11-21T08:41:38;2.00;0.75;0.25
76784;PMS7003;66893;44.316;0.092;2023-11-21T08:44:03;4.25;2.00;1.75
76784;PMS7003;66893;44.316;0.092;2023-11-21T08:46:32;2.00;2.00;1.75
76784;PMS7003;66893;44.316;0.092;2023-11-21T08:49:03;5.50;5.50;4.25
76784;PMS7003;66893;44.316;0.092;2023-11-21T08:51:28;7.25;6.00;4.00
76784;PMS7003;66893;44.316;0.092;2023-11-21T08:53:54;7.75;7.25;5.25
76784;PMS7003;66893;44.316;0.092;2023-11-21T08:56:20;7.25;7.25;5.25
76784;PMS7003;66893;44.316;0.092;2023-11-21T08:58:45;6.75;6.75;4.00
76784;PMS7003;66893;44.316;0.092;2023-11-21T09:01:15;8.75;8.25;6.75
76784;PMS7003;66893;44.316;0.092;2023-11-21T09:03:41;8.25;7.00;5.00
76784;PMS7003;66893;44.316;0.092;2023-11-21T09:06:06;10.25;8.25;5.50
76784;PMS7003;66893;44.316;0.092;2023-11-21T09:08:34;7.25;7.25;6.00
76784;PMS7003;66893;44.316;0.092;2023-11-21T09:11:00;9.25;8.50;7.25
76784;PMS7003;66893;44.316;0.092;2023-11-21T09:13:25;11.00;8.50;7.00
76784;PMS7003;66893;44.316;0.092;2023-11-21T09:15:51;8.75;8.75;6.50
76784;PMS7003;66893;44.316;0.092;2023-11-21T09:18:16;12.00;11.00;7.75
76784;PMS7003;66893;44.316;0.092;2023-11-21T09:20:42;11.50;8.50;6.75
76784;PMS7003;66893;44.316;0.092;2023-11-21T09:23:09;13.75;11.00;7.75
76784;PMS7003;66893;44.316;0.092;2023-11-21T09:25:35;8.50;7.50;6.00
76784;PMS7003;66893;44.316;0.092;2023-11-21T09:28:02;11.00;10.00;8.00
76784;PMS7003;66893;44.316;0.092;2023-11-21T09:30:32;11.25;9.00;7.50
76784;PMS7003;66893;44.316;0.092;2023-11-21T09:32:58;8.25;8.25;5.25
76784;PMS7003;66893;44.316;0.092;2023-11-21T09:35:23;7.50;7.50;6.50
76784;PMS7003;66893;44.316;0.092;2023-11-21T09:37:49;9.25;8.25;6.50
76784;PMS7003;66893;44.316;0.092;2023-11-21T09:40:15;8.25;6.25;5.00
76784;PMS7003;66893;44.316;0.092;2023-11-21T09:45:28;8.00;8.00;5.25
76784;PMS7003;66893;44.316;0.092;2023-11-21T09:47:56;9.50;8.00;7.25
76784;PMS7003;66893;44.316;0.092;2023-11-21T09:50:22;5.00;5.00;4.00
76784;PMS7003;66893;44.316;0.092;2023-11-21T09:53:00;7.00;7.00;5.25
76784;PMS7003;66893;44.316;0.092;2023-11-21T09:55:41;5.00;5.00;3.00
76784;PMS7003;66893;44.316;0.092;2023-11-21T09:58:09;7.50;5.00;4.00
76784;PMS7003;66893;44.316;0.092;2023-11-21T10:00:38;5.00;5.00;3.75
76784;PMS7003;66893;44.316;0.092;2023-11-21T10:03:05;2.75;2.75;2.75
76784;PMS7003;66893;44.316;0.092;2023-11-21T10:05:32;5.00;3.75;3.00
76784;PMS7003;66893;44.316;0.092;2023-11-21T10:07:59;3.75;3.75;2.75
76784;PMS7003;66893;44.316;0.092;2023-11-21T10:10:25;4.50;4.50;4.25
76784;PMS7003;66893;44.316;0.092;2023-11-21T10:12:53;5.50;3.25;3.00
76784;PMS7003;66893;44.316;0.092;2023-11-21T10:15:22;2.75;1.75;1.00
76784;PMS7003;66893;44.316;0.092;2023-11-21T10:17:51;5.00;4.50;3.00
76784;PMS7003;66893;44.316;0.092;2023-11-21T10:20:19;3.75;3.25;2.75
76784;PMS7003;66893;44.316;0.092;2023-11-21T10:22:45;3.25;3.25;2.25
76784;PMS7003;66893;44.316;0.092;2023-11-21T10:25:10;4.50;4.00;3.00
76784;PMS7003;66893;44.316;0.092;2023-11-21T10:27:39;3.00;3.00;3.00
76784;PMS7003;66893;44.316;0.092;2023-11-21T10:30:06;2.75;2.75;2.75
76784;PMS7003;66893;44.316;0.092;2023-11-21T10:32:33;4.50;4.50;3.00
76784;PMS7003;66893;44.316;0.092;2023-11-21T10:34:59;8.50;6.25;4.75
76784;PMS7003;66893;44.316;0.092;2023-11-21T10:37:34;5.25;5.25;4.00
76784;PMS7003;66893;44.316;0.092;2023-11-21T10:40:08;4.50;4.50;3.25
76784;PMS7003;66893;44.316;0.092;2023-11-21T10:42:40;5.50;5.50;4.00
76784;PMS7003;66893;44.316;0.092;2023-11-21T10:45:06;4.00;4.00;3.25
76784;PMS7003;66893;44.316;0.092;2023-11-21T10:47:39;3.75;3.75;2.50
76784;PMS7003;66893;44.316;0.092;2023-11-21T10:50:06;4.00;4.00;3.50
76784;PMS7003;66893;44.316;0.092;2023-11-21T10:52:36;7.50;5.75;4.75
76784;PMS7003;66893;44.316;0.092;2023-11-21T10:55:15;3.25;3.25;2.25
76784;PMS7003;66893;44.316;0.092;2023-11-21T10:57:43;3.50;3.00;2.00
76784;PMS7003;66893;44.316;0.092;2023-11-21T11:00:11;4.00;2.00;2.00
76784;PMS7003;66893;44.316;0.092;2023-11-21T11:02:38;5.00;3.00;3.00
76784;PMS7003;66893;44.316;0.092;2023-11-21T11:05:04;3.00;3.00;2.00
76784;PMS7003;66893;44.316;0.092;2023-11-21T11:07:31;2.00;2.00;1.75
76784;PMS7003;66893;44.316;0.092;2023-11-21T11:09:59;4.25;3.75;3.00
76784;PMS7003;66893;44.316;0.092;2023-11-21T11:12:25;2.50;2.50;2.00
76784;PMS7003;66893;44.316;0.092;2023-11-21T11:14:51;4.50;3.00;2.50
76784;PMS7003;66893;44.316;0.092;2023-11-21T11:17:18;2.75;1.25;1.00
76784;PMS7003;66893;44.316;0.092;2023-11-21T11:19:45;2.50;2.50;2.00
76784;PMS7003;66893;44.316;0.092;2023-11-21T11:36:19;2.00;2.00;1.00
76784;PMS7003;66893;44.316;0.092;2023-11-21T11:38:45;2.00;2.00;1.50
76784;PMS7003;66893;44.316;0.092;2023-11-21T11:41:11;2.75;2.00;1.00
76784;PMS7003;66893;44.316;0.092;2023-11-21T11:43:37;1.00;1.00;0.75
76784;PMS7003;66893;44.316;0.092;2023-11-21T11:46:09;2.50;2.00;1.00
76784;PMS7003;66893;44.316;0.092;2023-11-21T11:48:40;2.25;2.00;1.00
76784;PMS7003;66893;44.316;0.092;2023-11-21T11:51:09;1.75;1.25;1.00
76784;PMS7003;66893;44.316;0.092;2023-11-21T11:53:39;1.00;1.00;1.00
76784;PMS7003;66893;44.316;0.092;2023-11-21T11:56:30;2.25;2.25;1.00
76784;PMS7003;66893;44.316;0.092;2023-11-21T11:58:59;1.50;1.50;1.25
76784;PMS7003;66893;44.316;0.092;2023-11-21T12:01:27;4.25;2.00;2.00
76784;PMS7003;66893;44.316;0.092;2023-11-21T12:06:50;4.00;2.00;2.00
76784;PMS7003;66893;44.316;0.092;2023-11-21T12:09:22;3.75;1.75;1.00
76784;PMS7003;66893;44.316;0.092;2023-11-21T12:11:48;3.00;1.50;1.00
76784;PMS7003;66893;44.316;0.092;2023-11-21T12:14:15;2.50;0.50;0.00
76784;PMS7003;66893;44.316;0.092;2023-11-21T12:16:41;3.75;2.25;1.50
76784;PMS7003;66893;44.316;0.092;2023-11-21T12:19:08;2.50;1.00;1.00
76784;PMS7003;66893;44.316;0.092;2023-11-21T12:21:34;1.00;1.00;1.00
76784;PMS7003;66893;44.316;0.092;2023-11-21T12:24:01;1.25;1.00;1.00
76784;PMS7003;66893;44.316;0.092;2023-11-21T12:26:26;0.25;0.25;0.25
76784;PMS7003;66893;44.316;0.092;2023-11-21T12:28:52;2.00;2.00;1.00
76784;PMS7003;66893;44.316;0.092;2023-11-21T12:31:24;2.75;0.50;0.25
76784;PMS7003;66893;44.316;0.092;2023-11-21T12:33:49;2.50;1.50;1.00
76784;PMS7003;66893;44.316;0.092;2023-11-21T12:36:16;1.00;1.00;0.25
76784;PMS7003;66893;44.316;0.092;2023-11-21T12:38:41;1.00;0.75;0.75
76784;PMS7003;66893;44.316;0.092;2023-11-21T12:41:07;0.75;0.75;0.00
76784;PMS7003;66893;44.316;0.092;2023-11-21T12:43:33;2.00;1.00;1.00
76784;PMS7003;66893;44.316;0.092;2023-11-21T12:48:32;2.25;1.00;1.00
76784;PMS7003;66893;44.316;0.092;2023-11-21T12:50:57;1.75;1.75;1.00
76784;PMS7003;66893;44.316;0.092;2023-11-21T12:53:25;2.50;2.00;1.75
76784;PMS7003;66893;44.316;0.092;2023-11-21T12:55:51;1.00;1.00;1.00
76784;PMS7003;66893;44.316;0.092;2023-11-21T12:58:17;3.25;2.00;1.00
76784;PMS7003;66893;44.316;0.092;2023-11-21T13:00:48;2.00;0.25;0.25
76784;PMS7003;66893;44.316;0.092;2023-11-21T13:03:17;2.00;1.25;1.25
76784;PMS7003;66893;44.316;0.092;2023-11-21T13:05:48;2.00;1.50;1.00
76784;PMS7003;66893;44.316;0.092;2023-11-21T13:08:16;1.00;1.00;1.00
76784;PMS7003;66893;44.316;0.092;2023-11-21T13:10:45;1.00;1.00;1.00
76784;PMS7003;66893;44.316;0.092;2023-11-21T13:13:14;1.00;1.00;1.00
76784;PMS7003;66893;44.316;0.092;2023-11-21T13:15:55;4.00;1.75;1.00
76784;PMS7003;66893;44.316;0.092;2023-11-21T13:18:25;1.00;1.00;0.25
76784;PMS7003;66893;44.316;0.092;2023-11-21T13:20:56;1.00;1.00;1.00
76784;PMS7003;66893;44.316;0.092;2023-11-21T13:23:23;1.25;1.25;1.00
76784;PMS7003;66893;44.316;0.092;2023-11-21T13:25:49;1.00;1.00;1.00
76784;PMS7003;66893;44.316;0.092;2023-11-21T13:28:15;1.00;1.00;0.25
76784;PMS7003;66893;44.316;0.092;2023-11-21T13:30:41;1.00;1.00;1.00
76784;PMS7003;66893;44.316;0.092;2023-11-21T13:33:07;1.00;1.00;1.00
76784;PMS7003;66893;44.316;0.092;2023-11-21T13:35:35;0.50;0.50;0.00
76784;PMS7003;66893;44.316;0.092;2023-11-21T13:38:13;1.00;1.00;1.00
76784;PMS7003;66893;44.316;0.092;2023-11-21T13:40:46;1.75;1.00;1.00
76784;PMS7003;66893;44.316;0.092;2023-11-21T13:43:15;2.00;1.00;1.00
76784;PMS7003;66893;44.316;0.092;2023-11-21T13:45:43;1.00;1.00;0.00
76784;PMS7003;66893;44.316;0.092;2023-11-21T13:48:10;1.00;1.00;1.00
76784;PMS7003;66893;44.316;0.092;2023-11-21T13:50:41;1.00;1.00;1.00
76784;PMS7003;66893;44.316;0.092;2023-11-21T13:53:23;1.00;1.00;1.00
76784;PMS7003;66893;44.316;0.092;2023-11-21T13:55:49;0.75;0.75;0.00
76784;PMS7003;66893;44.316;0.092;2023-11-21T13:58:16;3.00;3.00;2.00
76784;PMS7003;66893;44.316;0.092;2023-11-21T14:00:45;2.00;2.00;1.50
76784;PMS7003;66893;44.316;0.092;2023-11-21T14:03:14;5.00;3.00;2.00
76784;PMS7003;66893;44.316;0.092;2023-11-21T14:05:47;1.75;1.75;1.25
76784;PMS7003;66893;44.316;0.092;2023-11-21T14:08:17;2.00;2.00;1.75
76784;PMS7003;66893;44.316;0.092;2023-11-21T14:10:46;3.00;2.25;2.00
76784;PMS7003;66893;44.316;0.092;2023-11-21T14:13:19;1.25;1.25;1.00
76784;PMS7003;66893;44.316;0.092;2023-11-21T14:15:48;3.00;1.25;1.00
76784;PMS7003;66893;44.316;0.092;2023-11-21T14:18:16;2.00;2.00;2.00
76784;PMS7003;66893;44.316;0.092;2023-11-21T14:20:43;3.00;2.25;1.25
76784;PMS7003;66893;44.316;0.092;2023-11-21T14:23:09;2.00;2.00;1.00
76784;PMS7003;66893;44.316;0.092;2023-11-21T14:25:35;4.50;2.25;2.00
76784;PMS7003;66893;44.316;0.092;2023-11-21T14:28:02;0.00;0.00;0.00
76784;PMS7003;66893;44.316;0.092;2023-11-21T14:30:29;1.00;1.00;1.00
76784;PMS7003;66893;44.316;0.092;2023-11-21T14:32:57;1.00;0.00;0.00
76784;PMS7003;66893;44.316;0.092;2023-11-21T14:35:23;0.75;0.75;0.75
76784;PMS7003;66893;44.316;0.092;2023-11-21T14:37:49;1.00;1.00;1.00
76784;PMS7003;66893;44.316;0.092;2023-11-21T14:40:15;2.25;2.00;1.00
76784;PMS7003;66893;44.316;0.092;2023-11-21T14:42:44;2.00;2.00;1.00
76784;PMS7003;66893;44.316;0.092;2023-11-21T14:45:12;4.00;1.00;1.00